Airfield :







YOU CAN JOIN US ON...

 
LOGIN :

Register | Disclaimer

   EN    FR    IT 

 









Legend :    VFR   Marginal VFR   IFR   Intensive IFR   Very Intensive IFR
Visi :
Ceiling :
>= 8 km
>= 3000ft
5 to 8 km
1000 to 3000 ft
1500m to 5 km
500 to 1000 ft
800 to 1500m
200 to 500 ft
< 800m
< 200 ft
Symbols :   Thunderstorms  Fog  Heavy snow  Heavy precipitations  Wind > 20 kt






- Airport Elevation : 203 ft
- IATA code : YQY


CYQY - Sydney

CURRENT METAR :
  • 172100Z 29006KT 15SM SCT049 SCT240 01/M05 A3001 RMK SC3CI1 SLP168

EXPIRED METARs :
  • 172000Z 31007KT 250V320 15SM FEW030 SCT038 BKN240 02/M03 A2999 RMK CU1SC2CI2 SLP161
  • 171900Z 27008KT 15SM SCT028 BKN240 02/M03 A2999 RMK CU3CI2 SLP158

TAF TAF CYQY
Valid from the 17 at 18:00 until the 18 at 06:00 UTC


171738Z 1718/1806 25008KT P6SM BKN020
TEMPO 1718/1721 BKN025
FM172100 30010KT P6SM SKC
BECMG 1722/1724 30012G22KT RMK NXT FCST BY 180000Z



MET'MAP, your aeronautical weather chart ! - Copyright ORBIFLY December 2007 - Disclaimer

ORBIFLY MET'MAP TEAM :

Programming & Development : Alexandra Zaïnal
Concept & original design : Baudouin d'Aumeries
Assistance for programming : Marc-Olivier Méhu
Technical & hardware support : Manuel Goepfert

Contact : metmap@orbifly.com




SOURCES & CREDITS :

   NOAA